Time;durP1;ratioP1;P1;durP2;ratioP2;P2;SDS_P1;SDS_P2;PMS_P1;PMS_P2;Temp;Humidity;BMP_temperature;BMP_pressure;BME280_temperature;BME280_humidity;BME280_pressure;Samples;Min_cycle;Max_cycle;Signal;HPM_P1;HPM_P2
2021/09/04 00:00:56;;;;;;;2.57;1.97;;;;;;;23.96;57.12;99760.25;2059433;28;20128;-49
2021/09/04 00:01:57;;;;;;;2.50;2.10;;;;;;;23.95;56.96;99759.38;2063512;28;20459;-45
2021/09/04 00:02:57;;;;;;;3.60;2.20;;;;;;;23.96;57.07;99761.09;2060318;28;20022;-46
2021/09/04 00:03:58;;;;;;;2.70;2.20;;;;;;;23.98;57.00;99757.28;2060528;28;20029;-48
2021/09/04 00:04:58;;;;;;;2.93;2.27;;;;;;;23.96;57.08;99754.75;2058534;28;20020;-46
2021/09/04 00:05:58;;;;;;;2.40;2.10;;;;;;;23.96;56.96;99755.59;2059540;28;20542;-46
2021/09/04 00:06:59;;;;;;;2.50;1.90;;;;;;;23.95;56.96;99759.38;2060993;28;20034;-45
2021/09/04 00:07:59;;;;;;;2.73;2.00;;;;;;;23.96;56.97;99754.75;2052535;28;20018;-47
2021/09/04 00:09:01;;;;;;;3.63;2.47;;;;;;;23.95;56.99;99753.88;2057149;28;20086;-45
2021/09/04 00:10:01;;;;;;;2.40;2.00;;;;;;;23.95;57.02;99748.34;2059799;28;20029;-47
2021/09/04 00:11:02;;;;;;;2.50;2.30;;;;;;;23.95;56.99;99742.84;2059820;28;20025;-47
2021/09/04 00:12:03;;;;;;;3.10;2.40;;;;;;;23.95;56.87;99748.34;2060486;28;20337;-45
2021/09/04 00:13:04;;;;;;;2.80;2.30;;;;;;;23.95;56.94;99753.00;2060453;28;20034;-45
2021/09/04 00:14:04;;;;;;;3.67;2.00;;;;;;;23.95;57.12;99748.34;2060820;28;20053;-45
2021/09/04 00:15:06;;;;;;;2.80;1.93;;;;;;;23.94;57.18;99756.81;2059956;28;20018;-46
2021/09/04 00:16:06;;;;;;;2.20;1.80;;;;;;;23.94;57.02;99751.31;2062728;28;20033;-46
2021/09/04 00:17:07;;;;;;;2.43;2.20;;;;;;;23.95;57.02;99753.00;2060360;28;20018;-46
2021/09/04 00:18:07;;;;;;;2.77;1.97;;;;;;;23.95;57.16;99747.50;2059199;28;20045;-46
2021/09/04 00:19:08;;;;;;;3.00;2.27;;;;;;;23.95;57.11;99753.88;2063846;28;20040;-45
2021/09/04 00:20:09;;;;;;;2.63;2.10;;;;;;;23.95;57.01;99753.88;2059284;28;20022;-45
2021/09/04 00:21:10;;;;;;;2.42;2.00;;;;;;;23.95;57.02;99753.88;2060516;28;20022;-44
2021/09/04 00:22:11;;;;;;;2.53;2.00;;;;;;;23.95;57.05;99747.50;2061630;28;20021;-46
2021/09/04 00:23:11;;;;;;;2.67;2.10;;;;;;;23.94;57.01;99752.16;2052690;28;20072;-44
2021/09/04 00:24:11;;;;;;;2.40;1.80;;;;;;;23.95;57.00;99745.59;2058792;28;20487;-45
2021/09/04 00:25:12;;;;;;;2.63;2.10;;;;;;;23.94;57.05;99746.66;2062615;28;20033;-47
2021/09/04 00:26:13;;;;;;;2.77;2.30;;;;;;;23.95;57.04;99747.50;2060428;28;20166;-45
2021/09/04 00:27:13;;;;;;;3.43;2.10;;;;;;;23.94;57.02;99741.16;2061139;28;20060;-44
2021/09/04 00:28:14;;;;;;;2.20;2.00;;;;;;;23.94;57.14;99746.66;2057523;28;20025;-45
2021/09/04 00:29:15;;;;;;;3.30;2.53;;;;;;;23.94;57.05;99746.66;2059764;28;20113;-45
2021/09/04 00:30:15;;;;;;;3.27;2.63;;;;;;;23.95;57.12;99742.00;2063778;28;20061;-44
2021/09/04 00:31:16;;;;;;;2.20;1.83;;;;;;;23.93;56.96;99739.47;2052863;28;20058;-45
2021/09/04 00:32:17;;;;;;;2.10;1.80;;;;;;;23.94;57.04;99746.66;2062213;28;20032;-45
2021/09/04 00:33:17;;;;;;;2.30;1.70;;;;;;;23.93;57.04;99744.97;2059018;28;20442;-45
2021/09/04 00:34:18;;;;;;;3.53;2.53;;;;;;;23.93;56.91;99747.72;2063685;28;20037;-45
2021/09/04 00:35:18;;;;;;;2.10;1.80;;;;;;;23.92;57.14;99737.72;2058183;28;20017;-44
2021/09/04 00:36:20;;;;;;;2.20;1.90;;;;;;;23.94;57.02;99751.31;2059858;28;20447;-45
2021/09/04 00:37:20;;;;;;;2.40;1.92;;;;;;;23.93;57.12;99744.97;2059342;28;20097;-44
2021/09/04 00:38:21;;;;;;;2.70;2.20;;;;;;;23.93;57.08;99742.22;2057369;28;20028;-46
2021/09/04 00:39:21;;;;;;;4.47;2.10;;;;;;;23.94;56.98;99751.31;2062520;28;20022;-46
2021/09/04 00:40:22;;;;;;;3.00;2.47;;;;;;;23.93;57.24;99749.59;2061008;28;20101;-45
2021/09/04 00:41:22;;;;;;;2.27;1.90;;;;;;;23.95;57.16;99748.34;2058952;28;20042;-45
2021/09/04 00:42:23;;;;;;;2.60;1.87;;;;;;;23.94;57.11;99745.81;2058296;28;20022;-44
2021/09/04 00:43:23;;;;;;;3.00;2.33;;;;;;;23.92;57.07;99746.00;2058143;28;20089;-48
2021/09/04 00:44:24;;;;;;;2.20;1.97;;;;;;;23.93;56.99;99742.22;2061082;28;20621;-46
2021/09/04 00:45:24;;;;;;;2.30;2.10;;;;;;;23.92;57.17;99748.75;2060530;28;20026;-45
2021/09/04 00:46:25;;;;;;;3.00;2.00;;;;;;;23.92;57.07;99743.25;2057021;28;20025;-44
2021/09/04 00:47:25;;;;;;;2.23;1.97;;;;;;;23.92;57.11;99750.66;2062843;28;20084;-47
2021/09/04 00:48:26;;;;;;;2.07;1.87;;;;;;;23.92;57.14;99746.00;2058707;28;20025;-46
2021/09/04 00:49:26;;;;;;;2.67;2.17;;;;;;;23.93;57.06;99746.84;2066089;28;20029;-45
2021/09/04 00:50:30;;;;;;;2.53;1.90;;;;;;;23.93;57.16;99749.59;2053485;28;20144;-45
2021/09/04 00:51:30;;;;;;;2.10;1.90;;;;;;;23.93;57.08;99750.47;2059493;28;20033;-45
2021/09/04 00:52:30;;;;;;;2.20;1.80;;;;;;;23.92;57.12;99740.50;2053056;28;20022;-44
2021/09/04 00:53:31;;;;;;;2.17;1.93;;;;;;;23.92;57.19;99737.72;2059983;28;20018;-46
2021/09/04 00:54:33;;;;;;;2.53;2.03;;;;;;;23.92;57.07;99740.50;2064539;28;20033;-45
2021/09/04 00:55:34;;;;;;;2.40;2.20;;;;;;;23.91;57.23;99736.03;2055077;28;20034;-45
2021/09/04 00:56:37;;;;;;;2.03;1.83;;;;;;;23.91;57.10;99740.66;2063501;28;20036;-45
2021/09/04 00:57:38;;;;;;;2.20;1.65;;;;;;;23.91;57.21;99733.28;2061355;28;20319;-45
2021/09/04 00:58:38;;;;;;;2.63;2.20;;;;;;;23.92;57.10;99736.88;2059432;28;20014;-46
2021/09/04 00:59:39;;;;;;;2.37;1.83;;;;;;;23.93;57.20;99741.34;2060353;28;20037;-46
2021/09/04 01:00:40;;;;;;;2.53;1.97;;;;;;;23.93;57.12;99738.59;2057878;28;20375;-45
2021/09/04 01:01:41;;;;;;;2.33;1.83;;;;;;;23.93;57.19;99739.47;2057766;28;20112;-45
2021/09/04 01:02:42;;;;;;;2.53;1.90;;;;;;;23.92;56.98;99736.88;2059008;28;20021;-45
2021/09/04 01:03:43;;;;;;;2.70;2.07;;;;;;;23.92;57.07;99737.72;2057808;28;20022;-45
2021/09/04 01:04:43;;;;;;;2.08;1.88;;;;;;;23.91;57.14;99738.78;2065472;28;20018;-45
2021/09/04 01:05:47;;;;;;;2.20;1.90;;;;;;;23.90;57.13;99739.81;2057789;28;20030;-45
2021/09/04 01:06:48;;;;;;;2.42;1.80;;;;;;;23.91;57.15;99741.53;2060366;28;20200;-45
2021/09/04 01:07:48;;;;;;;2.93;2.63;;;;;;;23.91;57.05;99740.66;2057313;28;20029;-45
2021/09/04 01:08:49;;;;;;;2.40;1.90;;;;;;;23.91;57.04;99736.03;2057401;28;20030;-44
2021/09/04 01:09:49;;;;;;;1.97;1.77;;;;;;;23.90;57.09;99739.81;2054674;28;20053;-47
2021/09/04 01:10:54;;;;;;;1.93;1.73;;;;;;;23.92;57.16;99739.63;2059320;28;20105;-45
2021/09/04 01:11:54;;;;;;;2.22;1.92;;;;;;;23.91;57.19;99741.53;2059995;28;20504;-46
2021/09/04 01:12:55;;;;;;;2.17;1.80;;;;;;;23.91;57.18;99733.28;2059579;28;20030;-45
2021/09/04 01:13:56;;;;;;;2.77;1.80;;;;;;;23.92;57.18;99737.72;2060305;28;20029;-44
2021/09/04 01:14:57;;;;;;;2.38;2.15;;;;;;;23.91;57.11;99730.53;2056503;28;20037;-46
2021/09/04 01:15:57;;;;;;;2.67;2.00;;;;;;;23.91;57.20;99736.03;2059059;28;20045;-45
2021/09/04 01:16:58;;;;;;;1.90;1.77;;;;;;;23.90;57.28;99728.81;2058945;28;20435;-45
2021/09/04 01:18:03;;;;;;;2.50;2.27;;;;;;;23.90;57.15;99738.97;2059302;28;20121;-45
2021/09/04 01:19:05;;;;;;;3.03;2.10;;;;;;;23.90;57.29;99723.31;2058097;28;20022;-45
2021/09/04 01:20:07;;;;;;;2.90;2.60;;;;;;;23.90;57.27;99728.81;2056585;28;20021;-45
2021/09/04 01:21:09;;;;;;;2.15;1.80;;;;;;;23.90;57.25;99734.31;2057027;28;20431;-45
2021/09/04 01:22:10;;;;;;;2.63;1.90;;;;;;;23.89;57.22;99729.88;2056526;28;20145;-46
2021/09/04 01:23:10;;;;;;;2.33;2.07;;;;;;;23.88;57.36;99730.91;2057719;28;20021;-48
2021/09/04 01:24:11;;;;;;;2.77;2.10;;;;;;;23.89;57.20;99726.25;2060194;28;20038;-45
2021/09/04 01:25:22;;;;;;;2.80;1.87;;;;;;;23.88;57.22;99725.38;2060860;28;20068;-44
2021/09/04 01:26:24;;;;;;;2.27;1.87;;;;;;;23.88;57.17;99719.03;2060123;28;20022;-45
2021/09/04 01:27:24;;;;;;;2.53;1.90;;;;;;;23.89;57.25;99721.59;2059394;28;20356;-46
2021/09/04 01:28:25;;;;;;;3.00;2.13;;;;;;;23.89;57.21;99729.88;2057566;28;20395;-46
2021/09/04 01:29:25;;;;;;;2.83;2.27;;;;;;;23.89;57.28;99726.25;2059998;28;20115;-45
2021/09/04 01:30:27;;;;;;;2.50;2.13;;;;;;;23.89;57.28;99727.13;2060187;28;20109;-45
2021/09/04 01:31:29;;;;;;;2.60;2.00;;;;;;;23.89;57.32;99732.63;2060349;28;20088;-45
2021/09/04 01:32:30;;;;;;;3.05;1.95;;;;;;;23.89;57.26;99732.63;2061340;28;20044;-44
2021/09/04 01:33:31;;;;;;;2.00;1.50;;;;;;;23.87;57.17;99734.69;2059324;28;20096;-44
2021/09/04 01:34:31;;;;;;;3.07;2.33;;;;;;;23.88;57.17;99733.66;2059711;28;20030;-44
2021/09/04 01:35:32;;;;;;;2.00;1.60;;;;;;;23.90;57.30;99737.06;2060230;28;20269;-44
2021/09/04 01:36:35;;;;;;;2.03;1.80;;;;;;;23.89;57.33;99738.13;2057651;28;20022;-47
2021/09/04 01:37:36;;;;;;;2.10;1.80;;;;;;;23.88;57.30;99733.66;2058853;28;20261;-45
2021/09/04 01:38:36;;;;;;;2.53;2.05;;;;;;;23.89;57.37;99729.88;2060182;28;21326;-45
2021/09/04 01:39:36;;;;;;;3.17;2.40;;;;;;;23.89;57.25;99732.63;2058355;28;20049;-45
2021/09/04 01:40:37;;;;;;;2.70;2.10;;;;;;;23.88;57.20;99730.91;2060122;28;20038;-47
2021/09/04 01:41:40;;;;;;;2.13;1.93;;;;;;;23.90;57.29;99726.06;2058556;28;20407;-45
2021/09/04 01:42:42;;;;;;;1.73;1.55;;;;;;;23.90;57.34;99728.81;2056579;28;20360;-46
2021/09/04 01:43:43;;;;;;;3.47;1.98;;;;;;;23.90;57.23;99723.31;2060033;28;20164;-45
2021/09/04 01:44:43;;;;;;;2.23;1.87;;;;;;;23.89;57.31;99721.59;2057310;28;20068;-45
2021/09/04 01:45:44;;;;;;;2.60;1.90;;;;;;;23.89;57.22;99720.75;2063169;28;20341;-46
2021/09/04 01:46:44;;;;;;;1.90;1.70;;;;;;;23.89;57.25;99721.59;2058889;28;20053;-45
2021/09/04 01:47:45;;;;;;;2.13;1.80;;;;;;;23.89;57.45;99720.75;2060656;28;20033;-45
2021/09/04 01:48:46;;;;;;;2.70;2.00;;;;;;;23.89;57.22;99718.84;2060495;28;20030;-44
2021/09/04 01:49:47;;;;;;;2.83;1.77;;;;;;;23.90;57.33;99719.69;2059805;28;20440;-44
2021/09/04 01:50:48;;;;;;;2.67;1.90;;;;;;;23.88;57.28;99722.63;2060571;28;20033;-45
2021/09/04 01:51:48;;;;;;;2.77;2.30;;;;;;;23.89;57.24;99721.59;2063516;28;20057;-44
2021/09/04 01:52:49;;;;;;;2.37;1.83;;;;;;;23.87;57.32;99718.19;2058314;28;20783;-45
2021/09/04 01:53:50;;;;;;;2.33;2.00;;;;;;;23.89;57.20;99721.59;2059890;28;20563;-44
2021/09/04 01:54:51;;;;;;;2.50;2.00;;;;;;;23.90;57.21;99716.94;2053220;28;20034;-45
2021/09/04 01:55:51;;;;;;;2.50;2.30;;;;;;;23.90;57.35;99717.78;2058487;28;20034;-45
2021/09/04 01:56:52;;;;;;;2.33;2.13;;;;;;;23.89;57.20;99727.13;2058467;28;20026;-45
2021/09/04 01:57:52;;;;;;;2.23;1.83;;;;;;;23.89;57.39;99721.59;2060187;28;20238;-45
2021/09/04 01:58:53;;;;;;;2.50;2.30;;;;;;;23.88;57.31;99728.13;2060268;28;20050;-45
2021/09/04 01:59:53;;;;;;;2.70;2.27;;;;;;;23.88;57.34;99722.63;2060022;28;20186;-45
2021/09/04 02:00:54;;;;;;;1.77;1.60;;;;;;;23.88;57.29;99725.38;2058857;28;20427;-45
2021/09/04 02:01:54;;;;;;;2.67;2.23;;;;;;;23.88;57.30;99719.88;2064129;28;20404;-45
2021/09/04 02:02:55;;;;;;;2.20;2.00;;;;;;;23.86;57.29;99716.50;2059268;28;20018;-46
2021/09/04 02:03:55;;;;;;;2.53;2.17;;;;;;;23.88;57.29;99728.13;2063795;28;20076;-45
2021/09/04 02:04:56;;;;;;;2.37;2.00;;;;;;;23.88;57.31;99719.88;2060532;28;20129;-44
2021/09/04 02:05:56;;;;;;;2.13;1.67;;;;;;;23.90;57.22;99716.94;2058086;28;20029;-45
2021/09/04 02:06:57;;;;;;;2.30;1.90;;;;;;;23.87;57.39;99718.19;2062506;28;20026;-45
2021/09/04 02:07:59;;;;;;;2.03;1.90;;;;;;;23.88;57.21;99719.88;2059370;28;20385;-46
2021/09/04 02:08:59;;;;;;;2.03;1.83;;;;;;;23.88;57.31;99719.88;2060620;28;20022;-45
2021/09/04 02:10:00;;;;;;;3.40;1.90;;;;;;;23.87;57.27;99717.34;2053061;28;20034;-44
2021/09/04 02:11:01;;;;;;;1.70;1.60;;;;;;;23.88;57.22;99717.13;2059457;28;20497;-44
2021/09/04 02:12:01;;;;;;;2.37;2.13;;;;;;;23.86;57.27;99716.50;2060479;28;20103;-46
2021/09/04 02:13:02;;;;;;;2.97;1.77;;;;;;;23.86;57.18;99716.50;2056932;28;20025;-45
2021/09/04 02:14:03;;;;;;;2.87;2.00;;;;;;;23.86;57.38;99716.50;2060964;28;20025;-47
2021/09/04 02:15:06;;;;;;;1.90;1.70;;;;;;;23.86;57.26;99711.00;2063683;28;20041;-44
2021/09/04 02:16:07;;;;;;;2.30;1.88;;;;;;;23.86;57.28;99712.84;2056730;28;20018;-46
2021/09/04 02:17:07;;;;;;;2.50;2.17;;;;;;;23.86;57.36;99716.50;2060952;28;20407;-46
2021/09/04 02:18:08;;;;;;;2.27;1.97;;;;;;;23.86;57.15;99705.47;2066114;28;20085;-44
2021/09/04 02:19:09;;;;;;;1.97;1.70;;;;;;;23.85;57.40;99709.25;2062117;28;20044;-45
2021/09/04 02:20:11;;;;;;;2.13;1.80;;;;;;;23.85;57.43;99713.91;2065026;28;20063;-45
2021/09/04 02:21:11;;;;;;;2.85;2.22;;;;;;;23.84;57.33;99713.06;2058323;28;20029;-46
2021/09/04 02:22:12;;;;;;;2.67;2.20;;;;;;;23.85;57.42;99708.41;2057312;28;20667;-45
2021/09/04 02:23:13;;;;;;;2.10;1.90;;;;;;;23.85;57.33;99709.25;2061006;28;20184;-46
2021/09/04 02:24:13;;;;;;;2.20;2.00;;;;;;;23.85;57.40;99709.25;2057714;28;20516;-46
2021/09/04 02:25:13;;;;;;;2.57;2.10;;;;;;;23.85;57.37;99712.00;2060464;28;20371;-46
2021/09/04 02:26:14;;;;;;;2.30;1.77;;;;;;;23.85;57.42;99719.41;2063062;28;20414;-45
2021/09/04 02:27:14;;;;;;;2.27;1.70;;;;;;;23.85;57.37;99702.91;2060412;28;20048;-44
2021/09/04 02:28:15;;;;;;;2.40;2.20;;;;;;;23.84;57.44;99713.06;2057820;28;20449;-45
2021/09/04 02:29:15;;;;;;;2.77;2.03;;;;;;;23.85;57.26;99714.75;2057328;28;20445;-45
2021/09/04 02:30:16;;;;;;;2.87;1.97;;;;;;;23.85;57.47;99711.16;2060489;28;20412;-45
2021/09/04 02:31:19;;;;;;;2.10;1.90;;;;;;;23.85;57.35;99714.75;2059576;28;20326;-45
2021/09/04 02:32:19;;;;;;;2.33;1.83;;;;;;;23.85;57.34;99714.75;2060960;28;20033;-45
2021/09/04 02:33:20;;;;;;;2.60;2.03;;;;;;;23.84;57.41;99713.06;2061014;28;20064;-44
2021/09/04 02:34:21;;;;;;;2.03;1.83;;;;;;;23.84;57.29;99715.81;2057520;28;20104;-45
2021/09/04 02:35:21;;;;;;;3.93;2.10;;;;;;;23.85;57.33;99717.50;2058778;28;20514;-45
2021/09/04 02:36:23;;;;;;;1.50;1.40;;;;;;;23.85;57.51;99719.41;2065560;28;20032;-46
2021/09/04 02:37:23;;;;;;;2.30;1.80;;;;;;;23.84;57.20;99713.06;2061303;28;20064;-45
2021/09/04 02:38:24;;;;;;;2.30;2.00;;;;;;;23.84;57.45;99713.06;2062669;28;20758;-45
2021/09/04 02:39:24;;;;;;;2.20;1.77;;;;;;;23.84;57.41;99715.81;2058593;28;20746;-47
2021/09/04 02:40:25;;;;;;;2.70;2.07;;;;;;;23.85;57.42;99720.28;2058396;28;20026;-45
2021/09/04 02:41:25;;;;;;;2.23;2.00;;;;;;;23.84;57.33;99713.06;2064375;28;20036;-45
2021/09/04 02:42:25;;;;;;;2.23;1.97;;;;;;;23.84;57.45;99713.06;2059025;28;20643;-46
2021/09/04 02:43:26;;;;;;;2.17;1.80;;;;;;;23.84;57.42;99715.81;2060440;28;20022;-45
2021/09/04 02:44:27;;;;;;;3.17;1.93;;;;;;;23.85;57.26;99708.41;2058585;28;20046;-45
2021/09/04 02:45:27;;;;;;;2.90;2.00;;;;;;;23.84;57.41;99712.22;2060121;28;20294;-45
2021/09/04 02:46:28;;;;;;;1.87;1.60;;;;;;;23.85;57.43;99706.50;2055273;28;20022;-44
2021/09/04 02:47:28;;;;;;;3.13;2.20;;;;;;;23.84;57.43;99707.56;2058988;28;20029;-45
2021/09/04 02:48:29;;;;;;;2.30;2.10;;;;;;;23.85;57.36;99712.00;2063544;28;20325;-47
2021/09/04 02:49:29;;;;;;;2.20;2.00;;;;;;;23.83;57.36;99711.34;2061473;28;20439;-44
2021/09/04 02:50:30;;;;;;;2.10;1.83;;;;;;;23.84;57.46;99713.06;2063332;28;20032;-46
2021/09/04 02:51:31;;;;;;;2.03;1.77;;;;;;;23.84;57.68;99707.56;2059816;28;20049;-44
2021/09/04 02:52:31;;;;;;;2.10;1.60;;;;;;;23.83;57.51;99707.75;2058488;28;20049;-45
2021/09/04 02:53:32;;;;;;;2.10;1.90;;;;;;;23.84;57.34;99710.31;2056292;28;20042;-45
2021/09/04 02:54:32;;;;;;;2.33;1.83;;;;;;;23.86;57.43;99705.47;2056405;28;20036;-45
2021/09/04 02:55:34;;;;;;;2.20;1.90;;;;;;;23.85;57.35;99708.41;2062554;28;20056;-45
2021/09/04 02:56:34;;;;;;;1.95;1.77;;;;;;;23.84;57.36;99696.56;2056944;28;20039;-46
2021/09/04 02:57:35;;;;;;;2.43;1.87;;;;;;;23.84;57.43;99702.06;2056997;28;20440;-45
2021/09/04 02:58:35;;;;;;;2.00;1.77;;;;;;;23.83;57.37;99699.50;2067644;28;20350;-46
2021/09/04 02:59:36;;;;;;;2.27;1.90;;;;;;;23.83;57.40;99708.59;2056328;28;20014;-45
2021/09/04 03:00:36;;;;;;;2.20;2.00;;;;;;;23.83;57.48;99705.84;2060488;28;20638;-45
2021/09/04 03:01:37;;;;;;;3.13;2.30;;;;;;;23.82;57.46;99700.53;2063211;28;20598;-49
2021/09/04 03:02:37;;;;;;;2.10;1.70;;;;;;;23.82;57.52;99698.63;2056729;28;20026;-45
2021/09/04 03:03:38;;;;;;;2.27;1.80;;;;;;;23.83;57.52;99697.59;2053321;28;20026;-45
2021/09/04 03:04:38;;;;;;;1.57;1.47;;;;;;;23.84;57.28;99702.06;2056867;28;20062;-46
2021/09/04 03:05:38;;;;;;;2.30;1.80;;;;;;;23.84;57.49;99695.72;2059097;28;20026;-45
2021/09/04 03:06:39;;;;;;;1.70;1.60;;;;;;;23.83;57.45;99699.50;2055529;28;20367;-45
2021/09/04 03:07:39;;;;;;;2.93;1.83;;;;;;;23.82;57.47;99698.63;2057222;28;20040;-46
2021/09/04 03:08:40;;;;;;;2.23;1.70;;;;;;;23.82;57.45;99693.13;2057979;28;20411;-46
2021/09/04 03:09:40;;;;;;;1.90;1.60;;;;;;;23.84;57.52;99703.97;2057265;28;20022;-45
2021/09/04 03:10:40;;;;;;;2.10;1.80;;;;;;;23.83;57.50;99692.06;2058341;28;20041;-46
2021/09/04 03:11:41;;;;;;;2.37;1.93;;;;;;;23.84;57.45;99702.06;2056196;28;20022;-45
2021/09/04 03:12:42;;;;;;;2.50;2.00;;;;;;;23.84;57.75;99696.56;2058389;28;20037;-46
2021/09/04 03:13:43;;;;;;;2.33;2.07;;;;;;;23.84;57.40;99696.56;2057699;28;20029;-47
2021/09/04 03:14:44;;;;;;;2.03;1.83;;;;;;;23.83;57.45;99700.34;2058590;28;20072;-45
2021/09/04 03:15:44;;;;;;;2.17;1.90;;;;;;;23.84;57.52;99702.06;2059737;28;20664;-44
2021/09/04 03:16:45;;;;;;;2.23;2.03;;;;;;;23.84;57.49;99696.56;2062090;28;20104;-45
2021/09/04 03:17:45;;;;;;;2.20;1.80;;;;;;;23.83;57.38;99703.09;2056361;28;20026;-45
2021/09/04 03:18:46;;;;;;;2.37;1.90;;;;;;;23.83;57.38;99705.00;2056795;28;20048;-45
2021/09/04 03:19:46;;;;;;;1.93;1.60;;;;;;;23.84;57.30;99696.56;2054830;28;20435;-45
2021/09/04 03:20:47;;;;;;;2.33;1.80;;;;;;;23.85;57.54;99703.75;2053566;28;20532;-45
2021/09/04 03:21:47;;;;;;;2.23;1.90;;;;;;;23.85;57.50;99694.66;2057864;28;20036;-46
2021/09/04 03:22:48;;;;;;;2.30;1.90;;;;;;;23.84;57.52;99696.56;2062639;28;20040;-44
2021/09/04 03:23:48;;;;;;;2.60;1.87;;;;;;;23.84;57.41;99701.22;2060974;28;20478;-46
2021/09/04 03:24:48;;;;;;;2.17;1.60;;;;;;;23.84;57.51;99691.06;2061811;28;20755;-47
2021/09/04 03:25:49;;;;;;;2.97;1.70;;;;;;;23.84;57.44;99696.56;2061327;28;20030;-48
2021/09/04 03:26:49;;;;;;;2.80;2.13;;;;;;;23.84;57.46;99691.06;2059619;28;20265;-45
2021/09/04 03:27:50;;;;;;;1.97;1.60;;;;;;;23.84;57.44;99702.06;2056926;28;20123;-45
2021/09/04 03:28:50;;;;;;;1.73;1.63;;;;;;;23.84;57.51;99699.31;2059941;28;20064;-46
2021/09/04 03:29:51;;;;;;;2.37;2.00;;;;;;;23.82;57.46;99695.88;2061596;28;20028;-45
2021/09/04 03:30:51;;;;;;;2.37;2.10;;;;;;;23.83;57.57;99697.59;2062821;28;20455;-44
2021/09/04 03:31:51;;;;;;;2.60;2.07;;;;;;;23.83;57.47;99696.72;2060474;28;20014;-45
2021/09/04 03:32:52;;;;;;;2.83;2.27;;;;;;;23.83;57.54;99692.06;2056133;28;20027;-45
2021/09/04 03:33:52;;;;;;;1.63;1.53;;;;;;;23.82;57.52;99695.88;2060816;28;20022;-45
2021/09/04 03:34:55;;;;;;;1.97;1.77;;;;;;;23.83;57.52;99697.59;2066213;28;20060;-45
2021/09/04 03:35:55;;;;;;;2.65;1.80;;;;;;;23.82;57.55;99695.88;2058959;28;20108;-45
2021/09/04 03:36:55;;;;;;;2.90;1.70;;;;;;;23.82;57.31;99690.38;2059419;28;20442;-45
2021/09/04 03:37:56;;;;;;;1.70;1.60;;;;;;;23.83;57.65;99705.00;2060790;28;20033;-45
2021/09/04 03:38:56;;;;;;;2.20;1.80;;;;;;;23.84;57.50;99704.81;2058120;28;20105;-46
2021/09/04 03:39:57;;;;;;;2.00;1.80;;;;;;;23.82;57.54;99709.66;2061278;28;20617;-45
2021/09/04 03:40:57;;;;;;;3.00;2.10;;;;;;;23.84;57.50;99706.72;2057316;28;20112;-45
2021/09/04 03:41:58;;;;;;;1.80;1.63;;;;;;;23.83;57.42;99708.59;2063602;28;20327;-44
2021/09/04 03:42:59;;;;;;;3.10;1.90;;;;;;;23.83;57.65;99702.25;2058118;28;20308;-45
2021/09/04 03:43:59;;;;;;;2.23;1.70;;;;;;;23.82;57.58;99709.66;2065709;28;20394;-44
2021/09/04 03:45:00;;;;;;;2.50;1.93;;;;;;;23.83;57.59;99703.09;2062773;28;20018;-45
2021/09/04 03:46:00;;;;;;;2.13;1.70;;;;;;;23.83;57.55;99710.50;2059294;28;20022;-45
2021/09/04 03:47:01;;;;;;;2.07;1.53;;;;;;;23.82;57.52;99703.28;2062042;28;20774;-45
2021/09/04 03:48:01;;;;;;;1.97;1.70;;;;;;;23.82;57.53;99704.16;2062088;28;20326;-45
2021/09/04 03:49:02;;;;;;;2.10;1.87;;;;;;;23.83;57.54;99705.84;2070188;28;20467;-45
2021/09/04 03:50:03;;;;;;;2.50;2.10;;;;;;;23.83;57.54;99699.50;2059453;28;20021;-45
2021/09/04 03:51:04;;;;;;;2.22;2.00;;;;;;;23.83;57.50;99703.09;2065702;28;20628;-47
2021/09/04 03:52:04;;;;;;;1.50;1.30;;;;;;;23.82;57.67;99709.66;2055873;28;20192;-44
2021/09/04 03:53:05;;;;;;;2.03;1.57;;;;;;;23.83;57.46;99696.72;2059565;28;20105;-45
2021/09/04 03:54:06;;;;;;;2.10;1.63;;;;;;;23.82;57.55;99698.63;2063101;28;20590;-45
2021/09/04 03:55:07;;;;;;;2.17;1.60;;;;;;;23.81;57.54;99696.91;2054984;28;20018;-45
2021/09/04 03:56:07;;;;;;;2.00;1.65;;;;;;;23.81;57.54;99696.91;2059528;28;20037;-46
2021/09/04 03:57:07;;;;;;;1.90;1.63;;;;;;;23.81;57.59;99685.91;2056177;28;20072;-45
2021/09/04 03:58:08;;;;;;;2.33;2.10;;;;;;;23.82;57.68;99693.13;2059139;28;20506;-45
2021/09/04 03:59:08;;;;;;;2.37;2.13;;;;;;;23.82;57.67;99695.03;2053863;28;20039;-45
2021/09/04 04:00:09;;;;;;;2.47;2.07;;;;;;;23.82;57.49;99693.13;2058662;28;20282;-45
2021/09/04 04:01:10;;;;;;;3.58;2.00;;;;;;;23.82;57.58;99698.63;2063749;28;20033;-45
2021/09/04 04:02:11;;;;;;;1.75;1.58;;;;;;;23.81;57.60;99696.91;2069151;28;20431;-45
2021/09/04 04:03:11;;;;;;;2.37;1.80;;;;;;;23.82;57.63;99693.13;2056664;28;20148;-45
2021/09/04 04:04:12;;;;;;;1.77;1.67;;;;;;;23.82;57.60;99697.78;2067515;28;20288;-45
2021/09/04 04:05:12;;;;;;;2.37;1.70;;;;;;;23.81;57.54;99696.91;2055478;28;20025;-46
2021/09/04 04:06:13;;;;;;;2.57;1.73;;;;;;;23.81;57.52;99696.91;2058563;28;20044;-45
2021/09/04 04:07:14;;;;;;;2.43;1.60;;;;;;;23.82;57.53;99697.78;2062076;28;20025;-44
2021/09/04 04:08:14;;;;;;;3.30;1.93;;;;;;;23.80;57.61;99695.22;2058888;28;20407;-45
2021/09/04 04:09:15;;;;;;;2.13;1.57;;;;;;;23.82;57.54;99695.03;2064824;28;20353;-45
2021/09/04 04:10:16;;;;;;;2.17;1.97;;;;;;;23.82;57.63;99695.88;2057017;28;20040;-45
2021/09/04 04:11:16;;;;;;;1.73;1.57;;;;;;;23.81;57.62;99691.41;2058087;28;20056;-45
2021/09/04 04:12:17;;;;;;;2.07;1.80;;;;;;;23.81;57.66;99691.41;2056580;28;20363;-45
2021/09/04 04:13:17;;;;;;;2.33;2.00;;;;;;;23.82;57.54;99692.28;2059520;28;20090;-48
2021/09/04 04:14:18;;;;;;;4.03;1.93;;;;;;;23.82;57.54;99698.63;2057015;28;20033;-45
2021/09/04 04:15:18;;;;;;;1.87;1.63;;;;;;;23.81;57.67;99696.91;2059638;28;20344;-45
2021/09/04 04:16:18;;;;;;;1.80;1.70;;;;;;;23.82;57.53;99697.78;2058697;28;20096;-45
2021/09/04 04:17:19;;;;;;;2.07;1.80;;;;;;;23.80;57.64;99703.47;2060788;28;20018;-45
2021/09/04 04:18:19;;;;;;;2.67;1.80;;;;;;;23.81;57.53;99702.41;2057039;28;20025;-45
2021/09/04 04:19:20;;;;;;;2.23;1.70;;;;;;;23.81;57.59;99702.41;2061107;28;20121;-45
2021/09/04 04:20:21;;;;;;;2.63;1.80;;;;;;;23.80;57.69;99700.72;2056077;28;20032;-45
2021/09/04 04:21:21;;;;;;;3.53;2.20;;;;;;;23.80;57.63;99708.97;2063353;28;20067;-45
2021/09/04 04:22:22;;;;;;;2.45;1.67;;;;;;;23.81;57.71;99696.91;2061651;28;20104;-45
2021/09/04 04:23:23;;;;;;;3.03;1.83;;;;;;;23.80;57.56;99703.47;2056276;28;20294;-44
2021/09/04 04:24:23;;;;;;;1.90;1.77;;;;;;;23.80;57.71;99705.38;2058993;28;20036;-45
2021/09/04 04:25:24;;;;;;;2.00;1.70;;;;;;;23.81;57.70;99701.56;2057583;28;20057;-45
2021/09/04 04:26:24;;;;;;;2.63;1.70;;;;;;;23.80;57.59;99702.63;2059103;28;20116;-45
2021/09/04 04:27:25;;;;;;;2.30;1.83;;;;;;;23.80;57.55;99702.63;2059594;28;20025;-46
2021/09/04 04:28:26;;;;;;;2.20;2.00;;;;;;;23.81;57.59;99707.91;2061415;28;20025;-44
2021/09/04 04:29:26;;;;;;;2.13;1.75;;;;;;;23.80;57.63;99700.72;2061305;28;20667;-45
2021/09/04 04:30:27;;;;;;;1.97;1.70;;;;;;;23.80;57.83;99700.72;2056015;28;20034;-45
2021/09/04 04:31:27;;;;;;;2.30;2.10;;;;;;;23.79;57.54;99704.53;2058355;28;20434;-45
2021/09/04 04:32:28;;;;;;;2.73;1.93;;;;;;;23.80;57.77;99702.63;2063780;28;20033;-45
2021/09/04 04:33:28;;;;;;;2.20;1.60;;;;;;;23.80;57.61;99699.88;2059881;28;20077;-45
2021/09/04 04:34:29;;;;;;;1.87;1.70;;;;;;;23.78;57.69;99697.31;2055565;28;20029;-45
2021/09/04 04:35:29;;;;;;;2.50;1.80;;;;;;;23.79;57.60;99701.78;2059048;28;20073;-44
2021/09/04 04:36:29;;;;;;;1.67;1.57;;;;;;;23.80;57.61;99706.22;2059381;28;20432;-45
2021/09/04 04:37:30;;;;;;;2.00;1.40;;;;;;;23.79;57.67;99698.16;2060010;28;20145;-45
2021/09/04 04:38:30;;;;;;;2.03;1.83;;;;;;;23.79;57.78;99704.53;2059932;28;20116;-45
2021/09/04 04:39:31;;;;;;;2.60;1.83;;;;;;;23.80;57.79;99697.97;2062231;28;20445;-45
2021/09/04 04:40:32;;;;;;;1.90;1.70;;;;;;;23.79;57.65;99696.28;2060179;28;20022;-46
2021/09/04 04:41:33;;;;;;;2.28;2.00;;;;;;;23.79;57.68;99699.03;2060047;28;20034;-45
2021/09/04 04:42:33;;;;;;;2.07;1.87;;;;;;;23.80;57.72;99699.88;2057879;28;20161;-46
2021/09/04 04:43:34;;;;;;;3.43;1.80;;;;;;;23.79;57.63;99704.53;2059155;28;20059;-45
2021/09/04 04:44:34;;;;;;;1.50;1.40;;;;;;;23.78;57.67;99705.56;2055709;28;20040;-45
2021/09/04 04:45:34;;;;;;;2.47;1.97;;;;;;;23.77;57.66;99689.25;2061348;28;20109;-44
2021/09/04 04:46:35;;;;;;;1.97;1.57;;;;;;;23.77;57.73;99698.38;2059599;28;20034;-46